ěÝzenÝ letovÚho provozu ╚eskÚ republiky
OPMET data - Ceska Republika Aktualizace: 29.05.2023 16:02:39  UTC
SIGMET / AIRMET - NIL
Warning / Vystraha - NIL
AIREP - NIL
REG QNH
REGIONAL QNH FORECAST ISSUED 2023-05-29 15:43 AREA VALID FM/TL QNH/HPA/ : LKAA 291600/291700 1014
 
METAR / SPECI
METAR LKBC NIL
METAR LKCS 291600Z AUTO 04007KT 010V070 CAVOK 22/05 Q1018=
METAR LKCV 291600Z 05005KT CAVOK 23/06 Q1018 NOSIG RMK BLU BLU=
METAR LKKB 291600Z 32007KT 290V010 CAVOK 23/05 Q1018 NOSIG RMK BLU BLU=
METAR LKKU 291600Z 36011KT 330V040 CAVOK 23/07 Q1016=
METAR LKKV 291600Z 07008KT 030V100 CAVOK 20/04 Q1020=
METAR LKLN 291600Z AUTO 03005KT 320V090 9999 // NCD 23/02 Q1018=
METAR LKMT 291600Z 35008KT CAVOK 21/08 Q1017 NOSIG=
METAR LKNA 291600Z 35006KT 300V030 CAVOK 21/06 Q1018 NOSIG RMK BLU BLU=
METAR LKPD 291600Z 04007KT 340V080 CAVOK 23/04 Q1018 NOSIG RMK BLU BLU=
METAR LKPJ 291600Z AUTO 05006KT 340V090 CAVOK 23/08 Q1017=
METAR LKPR 291600Z 35008KT CAVOK 22/04 Q1019 NOSIG=
METAR LKTB 291600Z 07007KT 030V100 CAVOK 23/06 Q1017 NOSIG=
METAR LKVO NIL
TAF
TAF LKBC NIL
TAF LKCS NIL
TAF LKCV 291100Z 2912/3012 02007KT CAVOK      TEMPO 2912/2918 04013KT      PROB30 TEMPO 2912/2918 05007G17KT      BECMG 2921/2923 32004KT      BECMG 3009/3012 04009KT=
TAF LKKB 291100Z 2912/3012 02007KT CAVOK      BECMG 2920/2922 VRB02KT      BECMG 3005/3007 02007KT=
TAF LKKU NIL
TAF LKKV 291100Z 2912/3012 08008KT CAVOK      TEMPO 3010/3012 03008G20KT=
TAF LKLN NIL
TAF LKMT 291100Z 2912/3012 03008KT CAVOK      TEMPO 2921/3006 VRB02KT      TEMPO 3010/3012 02012G24KT=
TAF LKNA 291100Z 2912/3012 01008KT CAVOK=
TAF LKPD 291100Z 2912/3012 04010KT CAVOK      BECMG 2915/2917 04005KT=
TAF LKPJ NIL
TAF LKPR 291400Z 2915/3021 02006KT CAVOK      TEMPO 2923/3006 34006KT      PROB40 TEMPO 3012/3018 02012G24KT      PROB40 TEMPO 3009/3015 9999 SCT050=
TAF LKTB 291100Z 2912/3012 07008KT CAVOK      BECMG 2922/3000 34003KT      BECMG 3007/3009 07008KT      TEMPO 3009/3012 07010G24KT 9999 SCT050TCU=
TAF LKVO NIL